sensor_id;sensor_type;location;lat;lon;timestamp;temperature;humidity
987;DHT22;482;48.778;9.210;2022-07-06T00:02:21;21.20;68.00
987;DHT22;482;48.778;9.210;2022-07-06T00:04:47;21.20;68.00
987;DHT22;482;48.778;9.210;2022-07-06T00:07:14;21.20;68.20
987;DHT22;482;48.778;9.210;2022-07-06T00:09:41;21.10;68.00
987;DHT22;482;48.778;9.210;2022-07-06T00:12:09;21.10;68.20
987;DHT22;482;48.778;9.210;2022-07-06T00:14:36;21.10;69.60
987;DHT22;482;48.778;9.210;2022-07-06T00:17:04;21.10;68.70
987;DHT22;482;48.778;9.210;2022-07-06T00:19:31;21.10;69.30
987;DHT22;482;48.778;9.210;2022-07-06T00:21:58;21.10;68.70
987;DHT22;482;48.778;9.210;2022-07-06T00:24:25;21.10;69.60
987;DHT22;482;48.778;9.210;2022-07-06T00:26:52;21.10;70.10
987;DHT22;482;48.778;9.210;2022-07-06T00:29:19;21.10;70.00
987;DHT22;482;48.778;9.210;2022-07-06T00:31:45;21.10;71.60
987;DHT22;482;48.778;9.210;2022-07-06T00:34:14;21.00;71.50
987;DHT22;482;48.778;9.210;2022-07-06T00:36:41;20.80;71.40
987;DHT22;482;48.778;9.210;2022-07-06T00:39:07;20.80;72.60
987;DHT22;482;48.778;9.210;2022-07-06T00:41:34;20.80;72.60
987;DHT22;482;48.778;9.210;2022-07-06T00:44:07;20.80;73.20
987;DHT22;482;48.778;9.210;2022-07-06T00:46:35;20.80;73.00
987;DHT22;482;48.778;9.210;2022-07-06T00:49:02;20.80;73.10
987;DHT22;482;48.778;9.210;2022-07-06T00:51:31;20.80;73.50
987;DHT22;482;48.778;9.210;2022-07-06T00:54:00;20.80;73.50
987;DHT22;482;48.778;9.210;2022-07-06T00:56:30;20.80;73.50
987;DHT22;482;48.778;9.210;2022-07-06T00:58:57;20.70;74.10
987;DHT22;482;48.778;9.210;2022-07-06T01:01:24;20.70;74.70
987;DHT22;482;48.778;9.210;2022-07-06T01:03:51;20.60;74.70
987;DHT22;482;48.778;9.210;2022-07-06T01:06:18;20.60;74.60
987;DHT22;482;48.778;9.210;2022-07-06T01:08:47;20.60;73.10
987;DHT22;482;48.778;9.210;2022-07-06T01:11:16;20.60;75.30
987;DHT22;482;48.778;9.210;2022-07-06T01:13:44;20.60;74.70
987;DHT22;482;48.778;9.210;2022-07-06T01:16:11;20.60;74.90
987;DHT22;482;48.778;9.210;2022-07-06T01:18:38;20.50;75.10
987;DHT22;482;48.778;9.210;2022-07-06T01:21:11;20.50;74.60
987;DHT22;482;48.778;9.210;2022-07-06T01:23:40;20.50;74.80
987;DHT22;482;48.778;9.210;2022-07-06T01:26:09;20.40;74.90
987;DHT22;482;48.778;9.210;2022-07-06T01:28:36;20.40;74.00
987;DHT22;482;48.778;9.210;2022-07-06T01:31:03;20.30;74.10
987;DHT22;482;48.778;9.210;2022-07-06T01:33:30;20.40;74.20
987;DHT22;482;48.778;9.210;2022-07-06T01:35:57;20.30;73.70
987;DHT22;482;48.778;9.210;2022-07-06T01:38:25;20.30;74.00
987;DHT22;482;48.778;9.210;2022-07-06T01:40:52;20.30;73.90
987;DHT22;482;48.778;9.210;2022-07-06T01:43:19;20.20;74.80
987;DHT22;482;48.778;9.210;2022-07-06T01:45:46;20.30;74.50
987;DHT22;482;48.778;9.210;2022-07-06T01:48:13;20.20;75.50
987;DHT22;482;48.778;9.210;2022-07-06T01:50:40;20.10;74.50
987;DHT22;482;48.778;9.210;2022-07-06T01:53:07;20.10;74.70
987;DHT22;482;48.778;9.210;2022-07-06T01:55:35;20.10;75.10
987;DHT22;482;48.778;9.210;2022-07-06T01:58:02;20.10;74.50
987;DHT22;482;48.778;9.210;2022-07-06T02:00:28;20.00;76.00
987;DHT22;482;48.778;9.210;2022-07-06T02:02:55;20.00;75.30
987;DHT22;482;48.778;9.210;2022-07-06T02:05:22;20.00;75.10
987;DHT22;482;48.778;9.210;2022-07-06T02:07:49;20.00;75.20
987;DHT22;482;48.778;9.210;2022-07-06T02:10:16;20.00;75.60
987;DHT22;482;48.778;9.210;2022-07-06T02:12:44;20.00;75.50
987;DHT22;482;48.778;9.210;2022-07-06T02:15:11;20.00;76.10
987;DHT22;482;48.778;9.210;2022-07-06T02:17:38;20.00;76.10
987;DHT22;482;48.778;9.210;2022-07-06T02:20:06;19.90;75.90
987;DHT22;482;48.778;9.210;2022-07-06T02:22:33;19.90;76.40
987;DHT22;482;48.778;9.210;2022-07-06T02:25:00;19.60;76.40
987;DHT22;482;48.778;9.210;2022-07-06T02:27:27;19.60;77.70
987;DHT22;482;48.778;9.210;2022-07-06T02:29:55;19.50;77.50
987;DHT22;482;48.778;9.210;2022-07-06T02:32:22;19.40;77.90
987;DHT22;482;48.778;9.210;2022-07-06T02:34:49;19.40;78.40
987;DHT22;482;48.778;9.210;2022-07-06T02:37:16;19.40;78.80
987;DHT22;482;48.778;9.210;2022-07-06T02:39:42;19.40;79.20
987;DHT22;482;48.778;9.210;2022-07-06T02:42:09;19.40;79.30
987;DHT22;482;48.778;9.210;2022-07-06T02:44:36;19.40;79.00
987;DHT22;482;48.778;9.210;2022-07-06T02:47:05;19.30;79.70
987;DHT22;482;48.778;9.210;2022-07-06T02:49:32;19.30;80.10
987;DHT22;482;48.778;9.210;2022-07-06T02:51:59;19.20;80.20
987;DHT22;482;48.778;9.210;2022-07-06T02:54:26;19.10;81.30
987;DHT22;482;48.778;9.210;2022-07-06T02:56:52;19.10;81.70
987;DHT22;482;48.778;9.210;2022-07-06T02:59:19;19.10;82.20
987;DHT22;482;48.778;9.210;2022-07-06T03:01:46;19.10;82.20
987;DHT22;482;48.778;9.210;2022-07-06T03:04:15;19.10;82.60
987;DHT22;482;48.778;9.210;2022-07-06T03:06:41;19.10;82.90
987;DHT22;482;48.778;9.210;2022-07-06T03:09:08;19.10;83.50
987;DHT22;482;48.778;9.210;2022-07-06T03:11:35;19.10;83.80
987;DHT22;482;48.778;9.210;2022-07-06T03:14:02;19.10;83.40
987;DHT22;482;48.778;9.210;2022-07-06T03:16:29;19.00;83.10
987;DHT22;482;48.778;9.210;2022-07-06T03:18:56;19.00;83.70
987;DHT22;482;48.778;9.210;2022-07-06T03:21:25;19.00;83.80
987;DHT22;482;48.778;9.210;2022-07-06T03:23:52;19.10;84.00
987;DHT22;482;48.778;9.210;2022-07-06T03:26:19;19.10;84.60
987;DHT22;482;48.778;9.210;2022-07-06T03:28:46;19.00;85.00
987;DHT22;482;48.778;9.210;2022-07-06T03:31:12;18.90;85.30
987;DHT22;482;48.778;9.210;2022-07-06T03:33:39;19.00;85.90
987;DHT22;482;48.778;9.210;2022-07-06T03:36:06;19.00;85.20
987;DHT22;482;48.778;9.210;2022-07-06T03:38:35;19.00;85.80
987;DHT22;482;48.778;9.210;2022-07-06T03:41:02;19.00;85.50
987;DHT22;482;48.778;9.210;2022-07-06T03:43:29;19.00;86.10
987;DHT22;482;48.778;9.210;2022-07-06T03:45:56;19.00;86.10
987;DHT22;482;48.778;9.210;2022-07-06T03:48:23;19.00;86.50
987;DHT22;482;48.778;9.210;2022-07-06T03:50:50;19.00;86.50
987;DHT22;482;48.778;9.210;2022-07-06T03:53:16;19.00;87.00
987;DHT22;482;48.778;9.210;2022-07-06T03:55:45;18.90;87.50
987;DHT22;482;48.778;9.210;2022-07-06T03:58:32;18.80;87.00
987;DHT22;482;48.778;9.210;2022-07-06T04:00:59;18.90;87.50
987;DHT22;482;48.778;9.210;2022-07-06T04:03:26;18.90;87.60
987;DHT22;482;48.778;9.210;2022-07-06T04:05:53;18.80;87.60
987;DHT22;482;48.778;9.210;2022-07-06T04:08:20;18.90;87.50
987;DHT22;482;48.778;9.210;2022-07-06T04:10:48;18.90;88.00
987;DHT22;482;48.778;9.210;2022-07-06T04:13:15;18.80;88.40
987;DHT22;482;48.778;9.210;2022-07-06T04:15:42;18.60;89.00
987;DHT22;482;48.778;9.210;2022-07-06T04:18:09;18.60;89.70
987;DHT22;482;48.778;9.210;2022-07-06T04:20:36;18.60;90.00
987;DHT22;482;48.778;9.210;2022-07-06T04:23:03;18.60;90.10
987;DHT22;482;48.778;9.210;2022-07-06T04:25:30;18.60;90.80
987;DHT22;482;48.778;9.210;2022-07-06T04:27:58;18.60;90.80
987;DHT22;482;48.778;9.210;2022-07-06T04:30:25;18.60;90.90
987;DHT22;482;48.778;9.210;2022-07-06T04:32:52;18.40;91.00
987;DHT22;482;48.778;9.210;2022-07-06T04:35:21;18.40;91.40
987;DHT22;482;48.778;9.210;2022-07-06T04:37:48;18.40;91.50
987;DHT22;482;48.778;9.210;2022-07-06T04:40:15;18.40;92.10
987;DHT22;482;48.778;9.210;2022-07-06T04:42:42;18.40;92.70
987;DHT22;482;48.778;9.210;2022-07-06T04:45:10;18.40;92.80
987;DHT22;482;48.778;9.210;2022-07-06T04:47:37;18.50;93.00
987;DHT22;482;48.778;9.210;2022-07-06T04:50:05;18.50;92.90
987;DHT22;482;48.778;9.210;2022-07-06T04:52:32;18.40;93.00
987;DHT22;482;48.778;9.210;2022-07-06T04:54:59;18.40;93.60
987;DHT22;482;48.778;9.210;2022-07-06T04:57:26;18.40;93.30
987;DHT22;482;48.778;9.210;2022-07-06T04:59:55;18.50;93.20
987;DHT22;482;48.778;9.210;2022-07-06T05:02:23;18.40;93.40
987;DHT22;482;48.778;9.210;2022-07-06T05:04:50;18.50;94.10
987;DHT22;482;48.778;9.210;2022-07-06T05:07:17;18.50;93.80
987;DHT22;482;48.778;9.210;2022-07-06T05:09:44;18.50;93.70
987;DHT22;482;48.778;9.210;2022-07-06T05:12:11;18.40;93.70
987;DHT22;482;48.778;9.210;2022-07-06T05:14:38;18.40;94.50
987;DHT22;482;48.778;9.210;2022-07-06T05:17:05;18.30;94.70
987;DHT22;482;48.778;9.210;2022-07-06T05:19:33;18.40;94.80
987;DHT22;482;48.778;9.210;2022-07-06T05:22:00;18.40;95.20
987;DHT22;482;48.778;9.210;2022-07-06T05:24:27;18.30;94.80
987;DHT22;482;48.778;9.210;2022-07-06T05:26:53;18.10;95.40
987;DHT22;482;48.778;9.210;2022-07-06T05:29:20;18.10;95.80
987;DHT22;482;48.778;9.210;2022-07-06T05:31:47;18.10;96.20
987;DHT22;482;48.778;9.210;2022-07-06T05:34:14;18.10;96.10
987;DHT22;482;48.778;9.210;2022-07-06T05:36:42;18.20;96.30
987;DHT22;482;48.778;9.210;2022-07-06T05:39:09;18.00;96.10
987;DHT22;482;48.778;9.210;2022-07-06T05:41:36;18.00;96.10
987;DHT22;482;48.778;9.210;2022-07-06T05:44:03;18.10;96.20
987;DHT22;482;48.778;9.210;2022-07-06T05:46:30;18.10;95.90
987;DHT22;482;48.778;9.210;2022-07-06T05:48:57;18.00;96.10
987;DHT22;482;48.778;9.210;2022-07-06T05:51:43;18.10;96.20
987;DHT22;482;48.778;9.210;2022-07-06T05:54:09;18.10;96.20
987;DHT22;482;48.778;9.210;2022-07-06T05:56:36;18.10;96.40
987;DHT22;482;48.778;9.210;2022-07-06T05:59:03;18.10;96.60
987;DHT22;482;48.778;9.210;2022-07-06T06:01:30;18.10;96.40
987;DHT22;482;48.778;9.210;2022-07-06T06:03:57;18.10;96.40
987;DHT22;482;48.778;9.210;2022-07-06T06:06:24;18.10;96.60
987;DHT22;482;48.778;9.210;2022-07-06T06:08:53;18.10;97.10
987;DHT22;482;48.778;9.210;2022-07-06T06:11:20;18.10;96.60
987;DHT22;482;48.778;9.210;2022-07-06T06:13:47;18.00;96.80
987;DHT22;482;48.778;9.210;2022-07-06T06:16:14;18.00;97.40
987;DHT22;482;48.778;9.210;2022-07-06T06:18:42;18.10;97.60
987;DHT22;482;48.778;9.210;2022-07-06T06:21:09;18.10;97.80
987;DHT22;482;48.778;9.210;2022-07-06T06:23:36;18.30;97.50
987;DHT22;482;48.778;9.210;2022-07-06T06:26:05;18.30;97.10
987;DHT22;482;48.778;9.210;2022-07-06T06:28:31;18.30;96.10
987;DHT22;482;48.778;9.210;2022-07-06T06:30:59;18.20;96.10
987;DHT22;482;48.778;9.210;2022-07-06T06:33:25;18.30;96.40
987;DHT22;482;48.778;9.210;2022-07-06T06:35:53;18.20;96.30
987;DHT22;482;48.778;9.210;2022-07-06T06:38:22;18.30;96.50
987;DHT22;482;48.778;9.210;2022-07-06T06:40:51;18.40;96.40
987;DHT22;482;48.778;9.210;2022-07-06T06:43:20;18.40;96.30
987;DHT22;482;48.778;9.210;2022-07-06T06:45:47;18.60;96.40
987;DHT22;482;48.778;9.210;2022-07-06T06:48:13;18.90;95.90
987;DHT22;482;48.778;9.210;2022-07-06T06:50:41;19.20;96.10
987;DHT22;482;48.778;9.210;2022-07-06T06:53:08;19.50;95.20
987;DHT22;482;48.778;9.210;2022-07-06T06:55:35;19.60;94.40
987;DHT22;482;48.778;9.210;2022-07-06T06:58:02;19.70;94.00
987;DHT22;482;48.778;9.210;2022-07-06T07:00:30;19.70;93.70
987;DHT22;482;48.778;9.210;2022-07-06T07:02:57;19.70;93.50
987;DHT22;482;48.778;9.210;2022-07-06T07:05:24;19.80;94.00
987;DHT22;482;48.778;9.210;2022-07-06T07:07:51;19.60;93.80
987;DHT22;482;48.778;9.210;2022-07-06T07:10:20;19.30;93.80
987;DHT22;482;48.778;9.210;2022-07-06T07:12:48;19.30;93.90
987;DHT22;482;48.778;9.210;2022-07-06T07:15:16;19.40;93.90
987;DHT22;482;48.778;9.210;2022-07-06T07:17:44;19.70;94.20
987;DHT22;482;48.778;9.210;2022-07-06T07:20:12;20.20;93.90
987;DHT22;482;48.778;9.210;2022-07-06T07:22:38;20.80;92.30
987;DHT22;482;48.778;9.210;2022-07-06T07:25:06;21.40;91.60
987;DHT22;482;48.778;9.210;2022-07-06T07:27:33;21.80;89.70
987;DHT22;482;48.778;9.210;2022-07-06T07:30:00;21.60;89.90
987;DHT22;482;48.778;9.210;2022-07-06T07:32:27;21.20;89.70
987;DHT22;482;48.778;9.210;2022-07-06T07:34:55;21.00;91.10
987;DHT22;482;48.778;9.210;2022-07-06T07:37:22;20.80;90.60
987;DHT22;482;48.778;9.210;2022-07-06T07:39:49;20.40;90.90
987;DHT22;482;48.778;9.210;2022-07-06T07:42:16;20.20;91.60
987;DHT22;482;48.778;9.210;2022-07-06T07:44:43;20.20;91.30
987;DHT22;482;48.778;9.210;2022-07-06T07:47:10;20.20;91.50
987;DHT22;482;48.778;9.210;2022-07-06T07:49:37;20.00;91.50
987;DHT22;482;48.778;9.210;2022-07-06T07:52:05;20.00;92.00
987;DHT22;482;48.778;9.210;2022-07-06T07:54:32;20.60;91.20
987;DHT22;482;48.778;9.210;2022-07-06T07:56:59;21.40;90.20
987;DHT22;482;48.778;9.210;2022-07-06T07:59:26;22.40;87.10
987;DHT22;482;48.778;9.210;2022-07-06T08:01:53;23.20;83.70
987;DHT22;482;48.778;9.210;2022-07-06T08:04:20;24.30;80.40
987;DHT22;482;48.778;9.210;2022-07-06T08:06:47;24.80;78.00
987;DHT22;482;48.778;9.210;2022-07-06T08:09:16;25.50;75.60
987;DHT22;482;48.778;9.210;2022-07-06T08:11:43;25.20;71.80
987;DHT22;482;48.778;9.210;2022-07-06T08:14:10;25.10;72.60
987;DHT22;482;48.778;9.210;2022-07-06T08:16:39;24.40;75.30
987;DHT22;482;48.778;9.210;2022-07-06T08:19:06;23.80;78.00
987;DHT22;482;48.778;9.210;2022-07-06T08:21:33;23.50;79.80
987;DHT22;482;48.778;9.210;2022-07-06T08:24:00;23.40;80.00
987;DHT22;482;48.778;9.210;2022-07-06T08:26:29;23.50;79.20
987;DHT22;482;48.778;9.210;2022-07-06T08:28:56;23.20;78.10
987;DHT22;482;48.778;9.210;2022-07-06T08:31:23;23.30;77.70
987;DHT22;482;48.778;9.210;2022-07-06T08:33:49;23.20;79.00
987;DHT22;482;48.778;9.210;2022-07-06T08:36:18;23.30;77.60
987;DHT22;482;48.778;9.210;2022-07-06T08:38:45;23.40;78.90
987;DHT22;482;48.778;9.210;2022-07-06T08:41:13;23.70;78.10
987;DHT22;482;48.778;9.210;2022-07-06T08:43:42;24.10;76.60
987;DHT22;482;48.778;9.210;2022-07-06T08:46:09;24.60;75.10
987;DHT22;482;48.778;9.210;2022-07-06T08:48:40;25.40;74.80
987;DHT22;482;48.778;9.210;2022-07-06T08:51:07;26.10;71.00
987;DHT22;482;48.778;9.210;2022-07-06T08:53:34;26.10;68.90
987;DHT22;482;48.778;9.210;2022-07-06T08:56:02;26.60;67.30
987;DHT22;482;48.778;9.210;2022-07-06T08:58:29;27.00;66.40
987;DHT22;482;48.778;9.210;2022-07-06T09:00:58;26.40;66.30
987;DHT22;482;48.778;9.210;2022-07-06T09:03:26;26.30;68.70
987;DHT22;482;48.778;9.210;2022-07-06T09:05:58;28.10;63.30
987;DHT22;482;48.778;9.210;2022-07-06T09:08:27;29.80;57.90
987;DHT22;482;48.778;9.210;2022-07-06T09:10:54;30.40;54.70
987;DHT22;482;48.778;9.210;2022-07-06T09:13:21;29.00;56.20
987;DHT22;482;48.778;9.210;2022-07-06T09:15:48;28.50;57.40
987;DHT22;482;48.778;9.210;2022-07-06T09:18:16;28.20;58.30
987;DHT22;482;48.778;9.210;2022-07-06T09:20:43;28.80;57.80
987;DHT22;482;48.778;9.210;2022-07-06T09:23:10;29.80;55.60
987;DHT22;482;48.778;9.210;2022-07-06T09:25:41;30.20;54.10
987;DHT22;482;48.778;9.210;2022-07-06T09:28:08;29.80;53.10
987;DHT22;482;48.778;9.210;2022-07-06T09:30:35;29.50;54.00
987;DHT22;482;48.778;9.210;2022-07-06T09:33:08;29.20;54.50
987;DHT22;482;48.778;9.210;2022-07-06T09:35:38;29.10;54.00
987;DHT22;482;48.778;9.210;2022-07-06T09:38:06;28.90;55.60
987;DHT22;482;48.778;9.210;2022-07-06T09:40:35;30.50;53.30
987;DHT22;482;48.778;9.210;2022-07-06T09:43:09;30.70;51.20
987;DHT22;482;48.778;9.210;2022-07-06T09:45:37;31.30;51.00
987;DHT22;482;48.778;9.210;2022-07-06T09:48:10;31.40;49.50
987;DHT22;482;48.778;9.210;2022-07-06T09:50:44;29.90;51.50
987;DHT22;482;48.778;9.210;2022-07-06T09:53:11;29.80;52.10
987;DHT22;482;48.778;9.210;2022-07-06T09:55:38;29.70;52.40
987;DHT22;482;48.778;9.210;2022-07-06T09:58:09;28.70;53.10
987;DHT22;482;48.778;9.210;2022-07-06T10:00:36;28.40;54.30
987;DHT22;482;48.778;9.210;2022-07-06T10:03:04;28.30;55.40
987;DHT22;482;48.778;9.210;2022-07-06T10:05:31;28.80;55.00
987;DHT22;482;48.778;9.210;2022-07-06T10:08:01;29.30;53.40
987;DHT22;482;48.778;9.210;2022-07-06T10:10:32;28.80;54.70
987;DHT22;482;48.778;9.210;2022-07-06T10:12:59;28.90;54.40
987;DHT22;482;48.778;9.210;2022-07-06T10:15:29;28.90;53.70
987;DHT22;482;48.778;9.210;2022-07-06T10:17:57;29.40;55.20
987;DHT22;482;48.778;9.210;2022-07-06T10:20:28;30.50;51.70
987;DHT22;482;48.778;9.210;2022-07-06T10:22:58;30.80;50.10
987;DHT22;482;48.778;9.210;2022-07-06T10:25:27;30.90;47.70
987;DHT22;482;48.778;9.210;2022-07-06T10:27:55;29.70;50.10
987;DHT22;482;48.778;9.210;2022-07-06T10:30:22;28.30;53.10
987;DHT22;482;48.778;9.210;2022-07-06T10:32:51;27.50;54.10
987;DHT22;482;48.778;9.210;2022-07-06T10:35:18;27.00;56.30
987;DHT22;482;48.778;9.210;2022-07-06T10:37:46;26.80;57.90
987;DHT22;482;48.778;9.210;2022-07-06T10:40:33;26.70;58.90
987;DHT22;482;48.778;9.210;2022-07-06T10:43:17;26.80;57.80
987;DHT22;482;48.778;9.210;2022-07-06T10:45:51;26.40;59.40
987;DHT22;482;48.778;9.210;2022-07-06T10:48:20;26.00;59.00
987;DHT22;482;48.778;9.210;2022-07-06T10:50:50;25.60;60.70
987;DHT22;482;48.778;9.210;2022-07-06T10:53:19;25.20;60.80
987;DHT22;482;48.778;9.210;2022-07-06T10:55:50;25.00;62.90
987;DHT22;482;48.778;9.210;2022-07-06T10:58:35;24.90;62.70
987;DHT22;482;48.778;9.210;2022-07-06T11:01:03;24.60;63.20
987;DHT22;482;48.778;9.210;2022-07-06T11:03:36;24.70;64.80
987;DHT22;482;48.778;9.210;2022-07-06T11:06:06;25.20;65.50
987;DHT22;482;48.778;9.210;2022-07-06T11:08:48;25.40;62.00
987;DHT22;482;48.778;9.210;2022-07-06T11:11:18;25.70;65.20
987;DHT22;482;48.778;9.210;2022-07-06T11:13:56;26.10;62.60
987;DHT22;482;48.778;9.210;2022-07-06T11:16:25;25.60;60.90
987;DHT22;482;48.778;9.210;2022-07-06T11:19:01;25.50;61.40
987;DHT22;482;48.778;9.210;2022-07-06T11:21:39;25.40;62.90
987;DHT22;482;48.778;9.210;2022-07-06T11:24:08;25.40;64.00
987;DHT22;482;48.778;9.210;2022-07-06T11:26:37;25.60;61.60
987;DHT22;482;48.778;9.210;2022-07-06T11:29:04;25.70;63.60
987;DHT22;482;48.778;9.210;2022-07-06T11:31:37;25.70;64.30
987;DHT22;482;48.778;9.210;2022-07-06T11:34:06;25.80;62.60
987;DHT22;482;48.778;9.210;2022-07-06T11:36:33;25.80;61.70
987;DHT22;482;48.778;9.210;2022-07-06T11:39:01;25.50;61.10
987;DHT22;482;48.778;9.210;2022-07-06T11:41:28;25.10;62.00
987;DHT22;482;48.778;9.210;2022-07-06T11:43:56;24.50;64.80
987;DHT22;482;48.778;9.210;2022-07-06T11:46:25;24.00;67.40
987;DHT22;482;48.778;9.210;2022-07-06T11:48:55;23.90;69.60
987;DHT22;482;48.778;9.210;2022-07-06T11:51:22;24.10;69.90
987;DHT22;482;48.778;9.210;2022-07-06T11:53:51;24.40;69.10
987;DHT22;482;48.778;9.210;2022-07-06T11:56:18;24.80;66.00
987;DHT22;482;48.778;9.210;2022-07-06T11:58:48;24.90;66.50
987;DHT22;482;48.778;9.210;2022-07-06T12:01:18;24.80;66.10
987;DHT22;482;48.778;9.210;2022-07-06T12:03:45;24.60;66.10
987;DHT22;482;48.778;9.210;2022-07-06T12:06:14;24.50;67.40
987;DHT22;482;48.778;9.210;2022-07-06T12:08:43;24.50;69.80
987;DHT22;482;48.778;9.210;2022-07-06T12:11:10;24.00;68.20
987;DHT22;482;48.778;9.210;2022-07-06T12:13:38;24.00;68.80
987;DHT22;482;48.778;9.210;2022-07-06T12:16:10;24.10;69.10
987;DHT22;482;48.778;9.210;2022-07-06T12:18:39;23.80;68.40
987;DHT22;482;48.778;9.210;2022-07-06T12:21:10;23.70;71.60
987;DHT22;482;48.778;9.210;2022-07-06T12:23:40;23.60;71.40
987;DHT22;482;48.778;9.210;2022-07-06T12:26:07;23.80;72.90
987;DHT22;482;48.778;9.210;2022-07-06T12:28:35;24.10;69.30
987;DHT22;482;48.778;9.210;2022-07-06T12:31:02;23.80;69.80
987;DHT22;482;48.778;9.210;2022-07-06T12:33:29;23.80;70.20
987;DHT22;482;48.778;9.210;2022-07-06T12:36:09;24.20;71.70
987;DHT22;482;48.778;9.210;2022-07-06T12:38:36;24.40;69.70
987;DHT22;482;48.778;9.210;2022-07-06T12:41:10;24.20;67.80
987;DHT22;482;48.778;9.210;2022-07-06T12:43:38;24.10;69.20
987;DHT22;482;48.778;9.210;2022-07-06T12:46:27;24.00;69.70
987;DHT22;482;48.778;9.210;2022-07-06T12:48:55;23.40;70.40
987;DHT22;482;48.778;9.210;2022-07-06T12:51:24;23.00;71.90
987;DHT22;482;48.778;9.210;2022-07-06T12:53:51;22.90;72.00
987;DHT22;482;48.778;9.210;2022-07-06T12:56:18;22.90;72.00
987;DHT22;482;48.778;9.210;2022-07-06T12:58:58;22.60;72.90
987;DHT22;482;48.778;9.210;2022-07-06T13:01:25;22.60;72.60
987;DHT22;482;48.778;9.210;2022-07-06T13:03:55;22.80;74.90
987;DHT22;482;48.778;9.210;2022-07-06T13:06:32;23.30;72.90
987;DHT22;482;48.778;9.210;2022-07-06T13:08:59;23.80;71.50
987;DHT22;482;48.778;9.210;2022-07-06T13:11:26;24.20;70.10
987;DHT22;482;48.778;9.210;2022-07-06T13:13:53;24.40;69.10
987;DHT22;482;48.778;9.210;2022-07-06T13:16:20;24.60;68.20
987;DHT22;482;48.778;9.210;2022-07-06T13:18:48;24.60;67.30
987;DHT22;482;48.778;9.210;2022-07-06T13:21:15;24.60;67.40
987;DHT22;482;48.778;9.210;2022-07-06T13:23:43;24.70;68.00
987;DHT22;482;48.778;9.210;2022-07-06T13:26:10;24.60;66.20
987;DHT22;482;48.778;9.210;2022-07-06T13:28:37;24.40;67.00
987;DHT22;482;48.778;9.210;2022-07-06T13:31:04;24.50;66.30
987;DHT22;482;48.778;9.210;2022-07-06T13:33:30;24.30;66.40
987;DHT22;482;48.778;9.210;2022-07-06T13:35:57;24.10;68.60
987;DHT22;482;48.778;9.210;2022-07-06T13:38:24;24.00;67.50
987;DHT22;482;48.778;9.210;2022-07-06T13:40:52;23.90;67.50
987;DHT22;482;48.778;9.210;2022-07-06T13:43:19;24.00;69.10
987;DHT22;482;48.778;9.210;2022-07-06T13:45:46;23.90;67.00
987;DHT22;482;48.778;9.210;2022-07-06T13:48:13;23.80;68.40
987;DHT22;482;48.778;9.210;2022-07-06T13:50:40;23.90;67.10
987;DHT22;482;48.778;9.210;2022-07-06T13:53:07;23.90;68.70
987;DHT22;482;48.778;9.210;2022-07-06T13:55:35;23.70;67.70
987;DHT22;482;48.778;9.210;2022-07-06T13:58:03;23.40;69.00
987;DHT22;482;48.778;9.210;2022-07-06T14:00:30;23.50;69.70
987;DHT22;482;48.778;9.210;2022-07-06T14:02:58;23.80;69.00
987;DHT22;482;48.778;9.210;2022-07-06T14:05:25;24.20;69.50
987;DHT22;482;48.778;9.210;2022-07-06T14:07:51;24.50;68.70
987;DHT22;482;48.778;9.210;2022-07-06T14:10:18;24.80;67.10
987;DHT22;482;48.778;9.210;2022-07-06T14:12:45;24.90;65.00
987;DHT22;482;48.778;9.210;2022-07-06T14:15:13;24.90;63.90
987;DHT22;482;48.778;9.210;2022-07-06T14:17:40;24.60;63.20
987;DHT22;482;48.778;9.210;2022-07-06T14:20:08;24.20;65.20
987;DHT22;482;48.778;9.210;2022-07-06T14:22:36;24.20;66.00
987;DHT22;482;48.778;9.210;2022-07-06T14:25:04;24.40;65.30
987;DHT22;482;48.778;9.210;2022-07-06T14:27:32;24.60;66.30
987;DHT22;482;48.778;9.210;2022-07-06T14:29:59;24.70;64.80
987;DHT22;482;48.778;9.210;2022-07-06T14:32:27;24.70;65.70
987;DHT22;482;48.778;9.210;2022-07-06T14:34:54;24.90;64.60
987;DHT22;482;48.778;9.210;2022-07-06T14:37:21;25.20;63.60
987;DHT22;482;48.778;9.210;2022-07-06T14:39:48;25.30;62.40
987;DHT22;482;48.778;9.210;2022-07-06T14:42:16;25.30;62.50
987;DHT22;482;48.778;9.210;2022-07-06T14:44:43;25.20;61.30
987;DHT22;482;48.778;9.210;2022-07-06T14:47:10;24.90;60.90
987;DHT22;482;48.778;9.210;2022-07-06T14:49:38;24.50;61.90
987;DHT22;482;48.778;9.210;2022-07-06T14:52:05;24.30;64.20
987;DHT22;482;48.778;9.210;2022-07-06T14:54:32;24.30;64.40
987;DHT22;482;48.778;9.210;2022-07-06T14:56:59;24.40;63.10
987;DHT22;482;48.778;9.210;2022-07-06T14:59:27;24.70;64.30
987;DHT22;482;48.778;9.210;2022-07-06T15:01:54;24.90;62.10
987;DHT22;482;48.778;9.210;2022-07-06T15:04:21;24.70;61.30
987;DHT22;482;48.778;9.210;2022-07-06T15:06:50;24.50;62.60
987;DHT22;482;48.778;9.210;2022-07-06T15:09:17;24.60;62.20
987;DHT22;482;48.778;9.210;2022-07-06T15:11:43;24.50;61.80
987;DHT22;482;48.778;9.210;2022-07-06T15:14:10;24.50;61.80
987;DHT22;482;48.778;9.210;2022-07-06T15:16:37;24.50;61.40
987;DHT22;482;48.778;9.210;2022-07-06T15:19:05;24.50;62.00
987;DHT22;482;48.778;9.210;2022-07-06T15:21:31;24.60;61.80
987;DHT22;482;48.778;9.210;2022-07-06T15:24:00;24.40;62.60
987;DHT22;482;48.778;9.210;2022-07-06T15:26:26;24.30;61.60
987;DHT22;482;48.778;9.210;2022-07-06T15:28:53;24.30;61.70
987;DHT22;482;48.778;9.210;2022-07-06T15:31:20;24.20;60.70
987;DHT22;482;48.778;9.210;2022-07-06T15:33:47;24.10;60.60
987;DHT22;482;48.778;9.210;2022-07-06T15:36:14;23.80;61.20
987;DHT22;482;48.778;9.210;2022-07-06T15:38:41;23.70;62.70
987;DHT22;482;48.778;9.210;2022-07-06T15:41:10;23.60;62.90
987;DHT22;482;48.778;9.210;2022-07-06T15:43:37;23.80;63.60
987;DHT22;482;48.778;9.210;2022-07-06T15:46:04;24.00;63.50
987;DHT22;482;48.778;9.210;2022-07-06T15:48:31;24.10;62.00
987;DHT22;482;48.778;9.210;2022-07-06T15:50:59;24.20;61.60
987;DHT22;482;48.778;9.210;2022-07-06T15:53:26;24.10;61.00
987;DHT22;482;48.778;9.210;2022-07-06T15:55:55;23.90;61.50
987;DHT22;482;48.778;9.210;2022-07-06T15:58:24;24.00;63.80
987;DHT22;482;48.778;9.210;2022-07-06T16:00:51;24.10;61.10
987;DHT22;482;48.778;9.210;2022-07-06T16:03:18;24.10;61.50
987;DHT22;482;48.778;9.210;2022-07-06T16:05:45;24.00;60.60
987;DHT22;482;48.778;9.210;2022-07-06T16:08:12;23.90;61.80
987;DHT22;482;48.778;9.210;2022-07-06T16:10:39;23.80;60.20
987;DHT22;482;48.778;9.210;2022-07-06T16:13:06;23.70;62.50
987;DHT22;482;48.778;9.210;2022-07-06T16:15:34;23.70;61.70
987;DHT22;482;48.778;9.210;2022-07-06T16:18:01;23.80;61.40
987;DHT22;482;48.778;9.210;2022-07-06T16:20:28;23.60;60.70
987;DHT22;482;48.778;9.210;2022-07-06T16:22:55;23.70;62.20
987;DHT22;482;48.778;9.210;2022-07-06T16:25:22;23.80;61.60
987;DHT22;482;48.778;9.210;2022-07-06T16:27:50;23.70;60.20
987;DHT22;482;48.778;9.210;2022-07-06T16:30:18;23.60;60.50
987;DHT22;482;48.778;9.210;2022-07-06T16:32:47;23.60;60.00
987;DHT22;482;48.778;9.210;2022-07-06T16:35:14;23.50;59.30
987;DHT22;482;48.778;9.210;2022-07-06T16:37:40;23.40;61.00
987;DHT22;482;48.778;9.210;2022-07-06T16:40:08;23.40;61.20